• Join FlightAware (Why Join?)
  • Login
  • US Flag 
12:58AM EDT


 

Airport Tracker/Info


-or-


 

Live Flight TrackerFlight Track Log ✈ CSN3487 ✈ 21-Apr-2013 ✈ ZGGG / CAN - ZPPP / KMG

Flight Track Log - Related Links

Times and Time Zones

All times are in EDT time to prevent confusion due to time zone crossing. See the CSN3487 flight status page for this flight to view local times or setup timezone preferences in your user account.

Time Position Orientation Groundspeed Altitude Reporting Facility
EDT Latitude Longitude Course Direction KTS MPH feet Rate Location/Type
11:35PM 23.4450 113.2920 354° North 165 190 2,600  Level FlightAware
11:35PM 23.4650 113.2910 357° North 195 224 3,100 1,260 Climbing FlightAware
11:36PM 23.4960 113.2900 358° North 234 269 3,800 1,680 Climbing FlightAware
11:36PM 23.5300 113.2800 345° North 271 312 4,800 1,920 Climbing FlightAware
11:37PM 23.5590 113.2720 346° North 278 320 5,600 2,040 Climbing FlightAware
11:37PM 23.5910 113.2640 347° North 281 323 6,500 1,200 Climbing FlightAware
11:38PM 23.6370 113.2490 343° North 280 322 6,800 360 Climbing FlightAware
11:38PM 23.6470 113.2390 318° Northwest 278 320 6,800 240 Level FlightAware
11:38PM 23.6560 113.2220 300° West 275 316 6,900 1,200 Climbing FlightAware
11:39PM 23.6580 113.2000 276° West 275 316 7,400 2,760 Climbing FlightAware
11:39PM 23.6490 113.1620 256° West 271 312 9,000 2,820 Climbing FlightAware
11:40PM 23.6370 113.1060 257° West 285 328 10,700 2,160 Climbing FlightAware
11:40PM 23.6280 113.0880 241° Southwest 306 352 11,000 1,200 Climbing FlightAware
11:40PM 23.5980 113.0630 217° Southwest 343 395 11,500 1,020 Climbing FlightAware
11:41PM 23.5740 113.0570 193° South 367 422 11,700 1,920 Climbing FlightAware
11:41PM 23.5040 113.0590 178° South 380 437 13,300 2,280 Climbing FlightAware
11:42PM 23.4220 113.0610 179° South 389 448 15,000 2,280 Climbing FlightAware
11:43PM 23.3480 113.0630 179° South 393 452 16,600 1,860 Climbing FlightAware
11:43PM 23.2670 113.0780 170° South 415 478 17,700 1,500 Climbing FlightAware
11:44PM 23.1970 113.1100 157° South 424 488 18,800 1,380 Climbing FlightAware
11:45PM 23.1120 113.1490 157° South 428 493 19,700 600 Climbing FlightAware
11:46PM 23.0440 113.1690 165° South 417 480 19,700  Level FlightAware
11:46PM 22.9930 113.1560 193° South 401 461 19,700  Level FlightAware
11:47PM 22.9290 113.1020 218° Southwest 394 453 19,700 660 Level FlightAware
11:47PM 22.8750 113.0510 221° Southwest 392 451 20,700 2,460 Climbing FlightAware
11:48PM 22.8140 112.9940 221° Southwest 360 414 23,200 2,640 Climbing FlightAware
11:49PM 22.7630 112.9460 221° Southwest 357 411 24,500 1,440 Climbing FlightAware
11:50PM 22.7060 112.8930 221° Southwest 372 428 25,300 960 Climbing FlightAware
11:50PM 22.6520 112.8420 221° Southwest 393 452 25,900 900 Climbing FlightAware
11:51PM 22.5970 112.7910 221° Southwest 406 467 26,500 1,380 Climbing FlightAware
11:52PM 22.5310 112.7290 221° Southwest 403 464 27,900 1,260 Climbing FlightAware
11:52PM 22.4660 112.6670 221° Southwest 405 466 28,500 360 Climbing FlightAware
11:53PM 22.4180 112.6220 221° Southwest 405 466 28,500  Level FlightAware
11:54PM 22.3580 112.5660 221° Southwest 405 466 28,500  Level FlightAware
11:55PM 22.3100 112.5200 222° Southwest 405 466 28,500  Level FlightAware
11:55PM 22.2620 112.4750 221° Southwest 405 466 28,500  Level FlightAware
11:56PM 22.2140 112.4300 221° Southwest 405 466 28,500  Level FlightAware
11:59PM 22.2908 112.2043 290° West  Level Estimated
12:00AM 22.3208 112.1158 290° West  Level Estimated
12:01AM 22.3508 112.0271 290° West  Level Estimated
12:02AM 22.3807 111.9385 290° West  Level Estimated
12:03AM 22.4106 111.8498 290° West  Level Estimated
12:04AM 22.4405 111.7611 290° West  Level Estimated
12:05AM 22.4702 111.6723 290° West  Level Estimated
12:06AM 22.5000 111.5835 290° West  Level Estimated
12:07AM 22.5297 111.4947 290° West  Level Estimated
12:08AM 22.5593 111.4058 290° West  Level Estimated
12:09AM 22.5889 111.3169 290° West  Level Estimated
12:10AM 22.6184 111.2280 290° West  Level Estimated
12:11AM 22.6479 111.1390 290° West  Level Estimated
12:12AM 22.6774 111.0499 290° West  Level Estimated
12:13AM 22.7068 110.9609 290° West  Level Estimated
12:14AM 22.7361 110.8718 290° West  Level Estimated
12:15AM 22.7654 110.7826 290° West  Level Estimated
12:16AM 22.7947 110.6934 290° West  Level Estimated
12:17AM 22.8239 110.6042 290° West  Level Estimated
12:18AM 22.8530 110.5150 290° West  Level Estimated
12:19AM 22.8821 110.4257 289° West  Level Estimated
12:20AM 22.9112 110.3363 289° West  Level Estimated
12:21AM 22.9402 110.2470 289° West  Level Estimated
12:22AM 22.9691 110.1575 289° West  Level Estimated
12:23AM 22.9980 110.0681 289° West  Level Estimated
12:24AM 23.0269 109.9786 289° West  Level Estimated
12:25AM 23.0557 109.8891 289° West  Level Estimated
12:26AM 23.0844 109.7995 289° West  Level Estimated
12:27AM 23.1131 109.7099 289° West  Level Estimated
12:28AM 23.1418 109.6203 289° West  Level Estimated
12:29AM 23.1704 109.5306 289° West  Level Estimated
12:30AM 23.1989 109.4409 289° West  Level Estimated
12:31AM 23.2274 109.3511 289° West  Level Estimated
12:32AM 23.2558 109.2613 289° West  Level Estimated
12:33AM 23.2842 109.1715 289° West  Level Estimated
12:34AM 23.3126 109.0816 289° West  Level Estimated
12:35AM 23.3409 108.9917 289° West  Level Estimated
12:36AM 23.3691 108.9018 289° West  Level Estimated
12:37AM 23.3973 108.8118 289° West  Level Estimated
12:38AM 23.4254 108.7218 289° West  Level Estimated
12:39AM 23.4535 108.6317 289° West  Level Estimated
12:40AM 23.4816 108.5416 289° West  Level Estimated
12:41AM 23.5095 108.4515 289° West  Level Estimated
12:42AM 23.5375 108.3613 289° West  Level Estimated
12:43AM 23.5653 108.2711 289° West  Level Estimated
12:44AM 23.5932 108.1808 289° West  Level Estimated
12:45AM 23.6209 108.0905 289° West  Level Estimated
12:46AM 23.6486 108.0002 289° West  Level Estimated
12:47AM 23.6763 107.9098 289° West  Level Estimated
12:48AM 23.7039 107.8194 288° West  Level Estimated
12:49AM 23.7315 107.7290 288° West  Level Estimated
12:50AM 23.7590 107.6385 288° West  Level Estimated
12:51AM 23.7865 107.5480 288° West  Level Estimated
12:52AM 23.8139 107.4574 288° West  Level Estimated
12:53AM 23.8412 107.3668 288° West  Level Estimated
12:54AM 23.8685 107.2762 288° West  Level Estimated
12:55AM 23.8958 107.1855 288° West  Level Estimated
12:56AM 23.9230 107.0948 288° West  Level Estimated
12:57AM 23.9501 107.0041 288° West  Level Estimated
12:58AM 23.9772 106.9133 288° West  Level Estimated
12:59AM 24.0042 106.8224 288° West  Level Estimated
01:00AM 24.0312 106.7316 288° West  Level Estimated
01:01AM 24.0581 106.6407 288° West  Level Estimated
01:02AM 24.0850 106.5497 288° West  Level Estimated
01:03AM 24.1118 106.4587 288° West  Level Estimated
01:04AM 24.1386 106.3677 288° West  Level Estimated
01:05AM 24.1653 106.2767 288° West  Level Estimated
01:06AM 24.1919 106.1856 288° West  Level Estimated
01:07AM 24.2185 106.0945 288° West  Level Estimated
01:08AM 24.2451 106.0033 288° West  Level Estimated
01:09AM 24.2716 105.9121 288° West  Level Estimated
01:10AM 24.2980 105.8208 288° West  Level Estimated
01:11AM 24.3244 105.7296 288° West  Level Estimated
01:12AM 24.3507 105.6382 288° West  Level Estimated
01:13AM 24.3770 105.5469 288° West  Level Estimated
01:14AM 24.4032 105.4555 288° West  Level Estimated
01:15AM 24.4294 105.3641 287° West  Level Estimated
01:16AM 24.4555 105.2726 287° West  Level Estimated
01:17AM 24.4815 105.1811 287° West  Level Estimated
01:18AM 24.5075 105.0895 287° West  Level Estimated
01:19AM 24.5335 104.9979 287° West  Level Estimated
01:20AM 24.5594 104.9063 287° West  Level Estimated
01:21AM 24.5852 104.8147 287° West  Level Estimated
01:22AM 24.6110 104.7230 287° West  Level Estimated
01:23AM 24.6367 104.6312 287° West  Level Estimated
01:24AM 24.6624 104.5394 287° West  Level Estimated
01:25AM 24.6880 104.4476 287° West  Level Estimated
01:26AM 24.7135 104.3558 287° West  Level Estimated
01:27AM 24.7390 104.2639 287° West  Level Estimated
01:28AM 24.7645 104.1720 287° West  Level Estimated
01:29AM 24.7899 104.0800 287° West  Level Estimated
01:30AM 24.8152 103.9880 287° West  Level Estimated
01:31AM 24.8405 103.8960 287° West  Level Estimated
01:32AM 24.8657 103.8039 287° West  Level Estimated
01:33AM 24.8909 103.7118 287° West  Level Estimated
01:34AM 24.9160 103.6196 287° West  Level Estimated
01:35AM 24.9410 103.5274 287° West  Level Estimated
01:36AM 24.9660 103.4352 287° West  Level Estimated
01:37AM 24.9909 103.3429 287° West  Level Estimated
01:38AM 25.0158 103.2506 287° West  Level Estimated
01:39AM 25.0406 103.1583 287° West  Level Estimated
01:40AM 25.0654 103.0659 287° West  Level Estimated